VIAR

Sri Guru Ram Dass Jee International Airport

Amritsar, India
TAF VIAR 212300Z 2200/2306 VRB02KT 1500 RA BR SCT030 BKN100 BECMG 2200/2203 0800 TSRA FEW035CB OVC080 BECMG 2205/2207 13008KT 3000 BR HZ FEW030 SCT100 BECMG 2209/2214 1500 -TSRA FEW035CB BKN090 BECMG 2215/2217 09006KT 2000 BR SCT030 BKN100 BECMG 2221/2303 0800 TSRA FEW035CB OVC080 BECMG 2304/2306 13006KT 2000 BR HZ FEW030 SCT100
Issued Valid From Valid To
Jan-21 @ 23:00 UTC
(an hour ago)
Jan-22 @ 00:00 UTC
(9 minutes ago)
Jan-23 @ 06:00 UTC
(-1 days ago)
Jan-22 @ 00:00 to Jan-23 @ 06:00
TAF VIAR 212300Z 2200/2306 VRB02KT 1500 RA BR SCT030 BKN100
Wind Visibility Clouds Conditions
Variable at 2 knots 1,497 meters
  • Scattered at 3,000' AGL
  • Broken at 10,000' AGL
  • Rain
  • Mist
Becoming Jan-22 @ 00:00 to Jan-22 @ 05:00
BECMG 2200/2203 0800 TSRA FEW035CB OVC080
Wind Visibility Clouds Conditions
Variable at 2 knots 805 meters
  • Few at 3,500' AGL
  • Overcast at 8,000' AGL
  • Thunderstorm
  • Rain
Becoming Jan-22 @ 05:00 to Jan-22 @ 09:00
BECMG 2205/2207 13008KT 3000 BR HZ FEW030 SCT100
Wind Visibility Clouds Conditions
130° at 8 knots 2,993 meters
  • Few at 3,000' AGL
  • Scattered at 10,000' AGL
  • Mist
  • Haze
Becoming Jan-22 @ 09:00 to Jan-22 @ 15:00
BECMG 2209/2214 1500 -TSRA FEW035CB BKN090
Wind Visibility Clouds Conditions
130° at 8 knots 1,497 meters
  • Few at 3,500' AGL
  • Broken at 9,000' AGL
  • Light Thunderstorm
  • Light Rain
Becoming Jan-22 @ 15:00 to Jan-22 @ 21:00
BECMG 2215/2217 09006KT 2000 BR SCT030 BKN100
Wind Visibility Clouds Conditions
90° at 6 knots 1,996 meters
  • Scattered at 3,000' AGL
  • Broken at 10,000' AGL
  • Mist
Becoming Jan-22 @ 21:00 to Jan-23 @ 04:00
BECMG 2221/2303 0800 TSRA FEW035CB OVC080
Wind Visibility Clouds Conditions
90° at 6 knots 805 meters
  • Few at 3,500' AGL
  • Overcast at 8,000' AGL
  • Thunderstorm
  • Rain
Becoming Jan-23 @ 04:00 to Jan-23 @ 06:00
BECMG 2304/2306 13006KT 2000 BR HZ FEW030 SCT100
Wind Visibility Clouds Conditions
130° at 6 knots 1,996 meters
  • Few at 3,000' AGL
  • Scattered at 10,000' AGL
  • Mist
  • Haze
TAF VIAR 212300Z 2200/2306 VRB02KT 1500 RA BR SCT030 BKN100 BECMG 2200/2203 0800 TSRA FEW035CB OVC080 BECMG 2205/2207 13008KT 3000 BR HZ FEW030 SCT100 BECMG 2209/2214 1500 -TSRA FEW035CB BKN090 BECMG 2215/2217 09006KT 2000 BR SCT030 BKN100 BECMG 2221/2303 0800 TSRA FEW035CB OVC080 BECMG 2304/2306 13006KT 2000 BR HZ FEW030 SCT100
Issued Jan-21 @ 23:00 UTC
(an hour ago)
Valid From Jan-22 @ 00:00 UTC
(9 minutes ago)
Valid To Jan-23 @ 06:00 UTC
(-1 days ago)
Jan-22 @ 00:00 - Jan-23 @ 06:00
Wind Visibility
Variable at 2 knots 1,497 meters
Clouds
  • Scattered at 3,000' AGL
  • Broken at 10,000' AGL
Conditions
  • Rain
  • Mist
Becoming Jan-22 @ 00:00 - Jan-22 @ 05:00
Wind Visibility
Variable at 2 knots 805 meters
Clouds
  • Few at 3,500' AGL
  • Overcast at 8,000' AGL
Conditions
  • Thunderstorm
  • Rain
Becoming Jan-22 @ 05:00 - Jan-22 @ 09:00
Wind Visibility
130° at 8 knots 2,993 meters
Clouds
  • Few at 3,000' AGL
  • Scattered at 10,000' AGL
Conditions
  • Mist
  • Haze
Becoming Jan-22 @ 09:00 - Jan-22 @ 15:00
Wind Visibility
130° at 8 knots 1,497 meters
Clouds
  • Few at 3,500' AGL
  • Broken at 9,000' AGL
Conditions
  • Light Thunderstorm
  • Light Rain
Becoming Jan-22 @ 15:00 - Jan-22 @ 21:00
Wind Visibility
90° at 6 knots 1,996 meters
Clouds
  • Scattered at 3,000' AGL
  • Broken at 10,000' AGL
Conditions
  • Mist
Becoming Jan-22 @ 21:00 - Jan-23 @ 04:00
Wind Visibility
90° at 6 knots 805 meters
Clouds
  • Few at 3,500' AGL
  • Overcast at 8,000' AGL
Conditions
  • Thunderstorm
  • Rain
Becoming Jan-23 @ 04:00 - Jan-23 @ 06:00
Wind Visibility
130° at 6 knots 1,996 meters
Clouds
  • Few at 3,000' AGL
  • Scattered at 10,000' AGL
Conditions
  • Mist
  • Haze